Holly Grove, North Carolina
Current Conditions -  °F | °C
As of 2:55 AM on Tuesday 21 Oct 2014 (Local Time) from KEXX Reporting Station
Clear Clear  
Wind Chill: 52°   Ceiling: Unl
Heat Index: 52°   Visibility: 10mi
Dew Point: 50°   Wind: 0mph
Humidity: 95%   Direction: NA
Pressure: 29.95"   Gusts: NA
Location:  35.7974°N, 80.2541°W
Report Text: KEXX 210655Z AUTO 00000KT 10SM CLR 11/10 A2995 RMK AO2 T01090101
Loading
Personal Weather Stations






























Interactive Weather Map
Tropical Storm Tracking
New forecast layout! Learn more

10-Day Weather Forecast

Advertisements
Track Severe Weather on mobile